createdAt,value
2023-04-16T00:01:13.202Z,69.57
2023-04-16T00:03:45.578Z,69.39
2023-04-16T00:06:17.730Z,69.40
2023-04-16T00:08:50.498Z,69.43
2023-04-16T00:11:22.489Z,69.51
2023-04-16T00:13:54.627Z,69.55
2023-04-16T00:16:29.188Z,69.51
2023-04-16T00:19:04.224Z,69.47
2023-04-16T00:21:36.262Z,69.38
2023-04-16T00:24:08.631Z,69.66
2023-04-16T00:26:41.218Z,69.50
2023-04-16T00:29:14.302Z,69.42
2023-04-16T00:31:46.449Z,69.52
2023-04-16T00:34:19.334Z,69.55
2023-04-16T00:36:51.606Z,69.55
2023-04-16T00:39:23.870Z,69.48
2023-04-16T00:41:57.884Z,69.47
2023-04-16T00:44:31.482Z,69.51
2023-04-16T00:47:05.008Z,69.76
2023-04-16T00:49:37.969Z,69.64
2023-04-16T00:52:12.300Z,69.68
2023-04-16T00:54:45.003Z,69.68
2023-04-16T00:57:21.107Z,69.82
2023-04-16T00:59:54.433Z,69.85
2023-04-16T01:02:29.877Z,69.80
2023-04-16T01:05:03.384Z,69.75
2023-04-16T01:07:35.955Z,69.79
2023-04-16T01:10:10.776Z,69.72
2023-04-16T01:12:43.261Z,69.79
2023-04-16T01:15:16.282Z,70.00
2023-04-16T01:17:49.910Z,69.99
2023-04-16T01:20:22.561Z,69.85
2023-04-16T01:22:55.214Z,69.93
2023-04-16T01:25:29.160Z,69.93
2023-04-16T01:28:01.679Z,69.82
2023-04-16T01:30:34.178Z,69.83
2023-04-16T01:33:18.200Z,69.87
2023-04-16T01:35:53.386Z,69.86
2023-04-16T01:38:28.230Z,69.85
2023-04-16T01:41:00.873Z,69.81
2023-04-16T01:43:33.107Z,69.96
2023-04-16T01:46:19.937Z,70.04
2023-04-16T01:48:54.914Z,70.07
2023-04-16T01:51:27.751Z,70.20
2023-04-16T01:54:01.474Z,70.16
2023-04-16T01:56:33.471Z,70.14
2023-04-16T01:59:05.797Z,69.96
2023-04-16T02:01:42.861Z,69.93
2023-04-16T02:04:15.850Z,70.01
2023-04-16T02:06:49.198Z,70.20
2023-04-16T02:09:21.586Z,70.09
2023-04-16T02:11:54.532Z,70.24
2023-04-16T02:14:29.286Z,70.14
2023-04-16T02:17:02.392Z,70.19
2023-04-16T02:19:48.577Z,70.23
2023-04-16T02:22:24.317Z,70.11
2023-04-16T02:25:09.766Z,70.24
2023-04-16T02:27:42.235Z,70.19
2023-04-16T02:30:28.012Z,70.09
2023-04-16T02:33:00.610Z,70.24
2023-04-16T02:35:33.699Z,70.18
2023-04-16T02:38:07.376Z,70.20
2023-04-16T02:40:40.323Z,70.21
2023-04-16T02:43:14.741Z,70.25
2023-04-16T02:45:50.879Z,70.43
2023-04-16T02:48:23.235Z,70.33
2023-04-16T02:50:55.914Z,70.41
2023-04-16T02:53:28.900Z,70.40
2023-04-16T02:56:01.350Z,70.26
2023-04-16T02:58:33.796Z,70.32
2023-04-16T03:01:06.529Z,70.37
2023-04-16T03:03:39.002Z,70.36
2023-04-16T03:06:11.844Z,70.31
2023-04-16T03:08:44.366Z,70.39
2023-04-16T03:11:17.026Z,70.49
2023-04-16T03:13:52.013Z,70.40
2023-04-16T03:16:24.280Z,70.37
2023-04-16T03:18:59.093Z,70.42
2023-04-16T03:21:32.691Z,70.42
2023-04-16T03:24:05.238Z,70.37
2023-04-16T03:26:37.743Z,70.41
2023-04-16T03:29:13.021Z,70.36
2023-04-16T03:31:45.861Z,70.47
2023-04-16T03:34:18.330Z,70.53
2023-04-16T03:36:51.197Z,70.48
2023-04-16T03:39:23.598Z,70.38
2023-04-16T03:41:55.931Z,70.44
2023-04-16T03:44:30.442Z,70.57
2023-04-16T03:47:02.956Z,70.50
2023-04-16T03:49:35.081Z,70.52
2023-04-16T03:52:07.739Z,70.56
2023-04-16T03:54:40.133Z,70.57
2023-04-16T03:57:22.497Z,70.59
2023-04-16T03:59:54.892Z,70.49
2023-04-16T04:02:28.453Z,70.56
2023-04-16T04:05:01.224Z,70.48
2023-04-16T04:07:34.149Z,70.60
2023-04-16T04:10:07.024Z,70.54
2023-04-16T04:12:41.652Z,70.69
2023-04-16T04:15:15.653Z,70.53
2023-04-16T04:17:47.984Z,70.62
2023-04-16T04:20:20.454Z,70.82
2023-04-16T04:22:53.397Z,70.73
2023-04-16T04:25:28.800Z,70.70
2023-04-16T04:28:01.110Z,70.77
2023-04-16T04:30:35.922Z,70.76
2023-04-16T04:33:08.747Z,70.65
2023-04-16T04:35:44.417Z,70.80
2023-04-16T04:38:20.018Z,70.88
2023-04-16T04:40:54.800Z,70.78
2023-04-16T04:43:31.294Z,70.79
2023-04-16T04:46:03.561Z,70.72
2023-04-16T04:48:36.579Z,70.70
2023-04-16T04:51:11.020Z,70.77
2023-04-16T04:53:43.291Z,70.90
2023-04-16T04:56:15.558Z,70.86
2023-04-16T04:58:47.763Z,70.87
2023-04-16T05:01:19.915Z,70.99
2023-04-16T05:03:52.874Z,71.10
2023-04-16T05:06:25.760Z,71.03
2023-04-16T05:08:59.046Z,70.99
2023-04-16T05:11:34.524Z,71.05
2023-04-16T05:14:06.801Z,71.09
2023-04-16T05:16:39.887Z,71.07
2023-04-16T05:19:12.287Z,70.90
2023-04-16T05:21:44.627Z,70.85
2023-04-16T05:24:16.819Z,70.95
2023-04-16T05:26:51.666Z,70.89
2023-04-16T05:29:23.971Z,70.90
2023-04-16T05:31:56.262Z,70.87
2023-04-16T05:34:31.248Z,70.79
2023-04-16T05:37:05.912Z,70.95
2023-04-16T05:39:38.363Z,70.93
2023-04-16T05:42:10.787Z,70.95
2023-04-16T05:44:43.064Z,71.02
2023-04-16T05:47:16.053Z,70.98
2023-04-16T05:49:51.360Z,70.94
2023-04-16T05:52:23.543Z,70.97
2023-04-16T05:54:55.821Z,70.89
2023-04-16T05:57:28.467Z,70.81
2023-04-16T06:00:00.711Z,70.76
2023-04-16T06:02:33.698Z,70.89
2023-04-16T06:05:06.711Z,70.93
2023-04-16T06:07:39.197Z,70.80
2023-04-16T06:10:15.037Z,70.73
2023-04-16T06:12:47.132Z,70.71
2023-04-16T06:15:19.373Z,70.80
2023-04-16T06:17:52.838Z,70.72
2023-04-16T06:20:31.402Z,70.86
2023-04-16T06:23:01.902Z,70.76
2023-04-16T06:25:34.216Z,70.82
2023-04-16T06:28:06.548Z,70.61
2023-04-16T06:30:38.952Z,70.72
2023-04-16T06:33:13.820Z,70.77
2023-04-16T06:35:46.180Z,70.73
2023-04-16T06:38:18.529Z,70.71
2023-04-16T06:40:51.099Z,70.74
2023-04-16T06:43:23.904Z,70.68
2023-04-16T06:45:59.005Z,70.75
2023-04-16T06:48:31.620Z,70.63
2023-04-16T06:51:03.805Z,70.67
2023-04-16T06:53:37.802Z,70.60
2023-04-16T06:56:11.398Z,70.64
2023-04-16T06:58:43.488Z,70.55
2023-04-16T07:01:17.944Z,70.48
2023-04-16T07:03:50.550Z,70.78
2023-04-16T07:06:23.494Z,70.58
2023-04-16T07:08:56.047Z,70.69
2023-04-16T07:11:31.395Z,70.61
2023-04-16T07:14:03.617Z,70.73
2023-04-16T07:16:37.971Z,70.55
2023-04-16T07:19:11.671Z,70.50
2023-04-16T07:21:43.922Z,70.52
2023-04-16T07:24:17.305Z,70.43
2023-04-16T07:26:49.200Z,70.58
2023-04-16T07:29:21.282Z,70.51
2023-04-16T07:31:54.265Z,70.30
2023-04-16T07:34:27.228Z,70.42
2023-04-16T07:36:59.343Z,70.45
2023-04-16T07:39:32.919Z,70.46
2023-04-16T07:42:05.264Z,70.30
2023-04-16T07:44:37.851Z,70.21
2023-04-16T07:47:10.202Z,70.19
2023-04-16T07:49:42.634Z,70.36
2023-04-16T07:52:14.962Z,70.47
2023-04-16T07:54:47.390Z,70.42
2023-04-16T07:57:20.574Z,70.47
2023-04-16T07:59:52.732Z,70.55
2023-04-16T08:02:24.891Z,70.40
2023-04-16T08:04:57.882Z,70.41
2023-04-16T08:07:34.465Z,70.34
2023-04-16T08:10:09.656Z,70.33
2023-04-16T08:12:41.926Z,70.50
2023-04-16T08:15:14.503Z,70.39
2023-04-16T08:17:47.138Z,70.47
2023-04-16T08:20:19.903Z,70.46
2023-04-16T08:22:52.439Z,70.32
2023-04-16T08:25:25.032Z,70.39
2023-04-16T08:27:57.954Z,70.24
2023-04-16T08:30:33.391Z,70.17
2023-04-16T08:33:05.504Z,70.22
2023-04-16T08:35:38.134Z,70.34
2023-04-16T08:38:16.822Z,70.33
2023-04-16T08:40:50.856Z,70.47
2023-04-16T08:43:31.412Z,70.57
2023-04-16T08:46:05.065Z,70.37
2023-04-16T08:48:38.437Z,70.35
2023-04-16T08:51:13.362Z,70.18
2023-04-16T08:53:54.738Z,70.25
2023-04-16T08:56:30.046Z,70.08
2023-04-16T08:59:05.741Z,69.90
2023-04-16T09:01:41.806Z,69.91
2023-04-16T09:04:15.422Z,69.94
2023-04-16T09:06:49.776Z,69.95
2023-04-16T09:09:24.150Z,70.15
2023-04-16T09:11:59.765Z,70.12
2023-04-16T09:14:43.384Z,70.08
2023-04-16T09:17:17.303Z,69.85
2023-04-16T09:19:50.079Z,69.74
2023-04-16T09:22:23.373Z,69.57
2023-04-16T09:24:56.243Z,69.74
2023-04-16T09:27:29.706Z,69.87
2023-04-16T09:30:02.336Z,70.05
2023-04-16T09:32:34.610Z,69.73
2023-04-16T09:35:11.377Z,69.42
2023-04-16T09:37:44.252Z,69.46
2023-04-16T09:40:25.701Z,69.73
2023-04-16T09:43:01.907Z,69.70
2023-04-16T09:45:52.166Z,69.55
2023-04-16T09:48:34.919Z,69.73
2023-04-16T09:51:09.578Z,69.66
2023-04-16T09:53:42.280Z,69.69
2023-04-16T09:56:16.675Z,69.49
2023-04-16T09:58:49.579Z,69.34
2023-04-16T10:01:22.359Z,69.05
2023-04-16T10:03:57.226Z,69.48
2023-04-16T10:06:32.056Z,69.31
2023-04-16T10:09:08.548Z,69.26
2023-04-16T10:11:42.557Z,69.25
2023-04-16T10:14:14.785Z,69.22
2023-04-16T10:16:48.021Z,69.10
2023-04-16T10:19:20.914Z,68.98
2023-04-16T10:21:53.898Z,69.08
2023-04-16T10:24:27.492Z,68.93
2023-04-16T10:27:00.552Z,68.62
2023-04-16T10:29:34.082Z,68.87
2023-04-16T10:32:07.379Z,68.95
2023-04-16T10:34:40.619Z,68.88
2023-04-16T10:37:12.715Z,69.02
2023-04-16T10:39:45.104Z,69.03
2023-04-16T10:42:17.401Z,69.10
2023-04-16T10:44:49.854Z,68.91
2023-04-16T10:47:26.331Z,68.94
2023-04-16T10:49:59.387Z,68.68
2023-04-16T10:52:32.456Z,68.99
2023-04-16T10:55:04.672Z,68.95
2023-04-16T10:57:37.178Z,68.83
2023-04-16T11:00:24.804Z,68.64
2023-04-16T11:02:57.506Z,68.67
2023-04-16T11:05:47.960Z,68.44
2023-04-16T11:08:20.236Z,68.29
2023-04-16T11:10:52.649Z,68.16
2023-04-16T11:13:25.413Z,68.07
2023-04-16T11:16:00.758Z,68.25
2023-04-16T11:18:33.096Z,68.18
2023-04-16T11:21:08.907Z,67.94
2023-04-16T11:23:54.873Z,68.02
2023-04-16T11:26:32.334Z,67.90
2023-04-16T11:29:15.896Z,68.10
2023-04-16T11:31:54.382Z,67.93
2023-04-16T11:34:27.572Z,67.96
2023-04-16T11:37:01.906Z,68.26
2023-04-16T11:39:35.528Z,68.13
2023-04-16T11:42:07.809Z,68.04
2023-04-16T11:44:40.142Z,68.12
2023-04-16T11:47:14.124Z,67.89
2023-04-16T11:49:48.572Z,68.26
2023-04-16T11:52:31.090Z,68.27
2023-04-16T11:55:03.879Z,68.05
2023-04-16T11:57:36.275Z,68.22
2023-04-16T12:00:13.985Z,68.41
2023-04-16T12:02:48.027Z,68.25
2023-04-16T12:05:35.123Z,68.56
2023-04-16T12:08:10.999Z,68.49
2023-04-16T12:10:58.250Z,68.66
2023-04-16T12:13:30.758Z,68.45
2023-04-16T12:16:03.175Z,67.73
2023-04-16T12:18:38.133Z,66.96
2023-04-16T12:21:10.410Z,66.38
2023-04-16T12:23:42.779Z,66.38
2023-04-16T12:26:17.175Z,66.33
2023-04-16T12:28:49.466Z,66.39
2023-04-16T12:31:39.558Z,66.38
2023-04-16T12:34:16.709Z,66.43
2023-04-16T12:36:49.809Z,66.85
2023-04-16T12:39:22.752Z,66.59
2023-04-16T12:41:55.908Z,66.16
2023-04-16T12:44:33.166Z,66.07
2023-04-16T12:47:05.854Z,66.04
2023-04-16T12:49:38.558Z,66.16
2023-04-16T12:52:10.636Z,66.14
2023-04-16T12:54:42.959Z,65.80
2023-04-16T12:57:15.213Z,65.91
2023-04-16T12:59:47.852Z,65.75
2023-04-16T13:02:20.604Z,65.66
2023-04-16T13:04:53.279Z,65.90
2023-04-16T13:07:27.638Z,66.01
2023-04-16T13:10:00.817Z,66.19
2023-04-16T13:12:33.001Z,66.25
2023-04-16T13:15:05.708Z,65.92
2023-04-16T13:17:38.232Z,65.88
2023-04-16T13:20:13.126Z,66.18
2023-04-16T13:22:49.956Z,66.23
2023-04-16T13:25:22.122Z,66.00
2023-04-16T13:27:54.303Z,65.53
2023-04-16T13:30:33.702Z,65.43
2023-04-16T13:33:06.173Z,65.41
2023-04-16T13:35:38.161Z,65.42
2023-04-16T13:38:12.862Z,65.58
2023-04-16T13:40:45.684Z,65.40
2023-04-16T13:43:19.112Z,65.03
2023-04-16T13:45:51.165Z,65.01
2023-04-16T13:48:23.507Z,64.76
2023-04-16T13:50:56.198Z,64.91
2023-04-16T13:53:30.860Z,64.67
2023-04-16T13:56:04.245Z,64.35
2023-04-16T13:58:36.304Z,64.49
2023-04-16T14:01:08.395Z,64.31
2023-04-16T14:03:42.214Z,64.33
2023-04-16T14:06:15.144Z,64.49
2023-04-16T14:08:47.300Z,64.20
2023-04-16T14:11:19.812Z,64.34
2023-04-16T14:13:52.048Z,64.39
2023-04-16T14:16:24.127Z,64.19
2023-04-16T14:18:57.113Z,64.45
2023-04-16T14:21:29.820Z,64.51
2023-04-16T14:24:06.291Z,64.36
2023-04-16T14:26:38.494Z,64.60
2023-04-16T14:29:11.006Z,64.32
2023-04-16T14:31:43.114Z,64.61
2023-04-16T14:34:15.331Z,64.74
2023-04-16T14:36:49.311Z,64.39
2023-04-16T14:39:21.676Z,64.40
2023-04-16T14:41:53.549Z,64.52
2023-04-16T14:44:27.606Z,64.52
2023-04-16T14:46:59.501Z,64.74
2023-04-16T14:49:32.371Z,64.56
2023-04-16T14:52:05.843Z,64.64
2023-04-16T14:54:39.373Z,64.62
2023-04-16T14:57:11.331Z,64.37
2023-04-16T14:59:43.675Z,64.71
2023-04-16T15:02:16.310Z,64.53
2023-04-16T15:04:48.831Z,64.62
2023-04-16T15:07:21.385Z,64.74
2023-04-16T15:09:54.132Z,64.86
2023-04-16T15:12:26.948Z,64.82
2023-04-16T15:15:00.064Z,64.65
2023-04-16T15:17:32.189Z,64.76
2023-04-16T15:20:08.267Z,64.77
2023-04-16T15:22:41.227Z,64.78
2023-04-16T15:25:14.634Z,64.64
2023-04-16T15:27:46.584Z,64.80
2023-04-16T15:30:19.108Z,64.73
2023-04-16T15:32:52.063Z,64.36
2023-04-16T15:35:27.036Z,64.26
2023-04-16T15:37:59.145Z,63.91
2023-04-16T15:40:31.410Z,64.21
2023-04-16T15:43:04.268Z,63.92
2023-04-16T15:45:37.610Z,64.13
2023-04-16T15:48:10.036Z,64.18
2023-04-16T15:50:42.205Z,64.34
2023-04-16T15:53:14.256Z,64.12
2023-04-16T15:55:50.550Z,64.19
2023-04-16T15:58:23.212Z,64.33
2023-04-16T16:00:55.767Z,64.30
2023-04-16T16:03:30.145Z,64.20
2023-04-16T16:06:04.149Z,64.43
2023-04-16T16:08:39.580Z,64.45
2023-04-16T16:11:14.196Z,64.42
2023-04-16T16:13:46.355Z,64.57
2023-04-16T16:16:20.306Z,64.06
2023-04-16T16:18:52.328Z,64.17
2023-04-16T16:21:24.821Z,64.24
2023-04-16T16:23:59.233Z,64.22
2023-04-16T16:26:32.665Z,64.50
2023-04-16T16:29:05.034Z,64.32
2023-04-16T16:31:47.397Z,64.30
2023-04-16T16:34:23.177Z,64.33
2023-04-16T16:37:05.831Z,64.43
2023-04-16T16:39:49.467Z,64.27
2023-04-16T16:42:24.311Z,64.57
2023-04-16T16:45:02.889Z,64.44
2023-04-16T16:50:36.135Z,64.26
2023-04-16T16:53:09.409Z,64.34
2023-04-16T16:55:45.161Z,64.36
2023-04-16T16:58:18.929Z,64.32
2023-04-16T17:00:59.097Z,64.42
2023-04-16T17:03:38.794Z,64.47
2023-04-16T17:06:19.897Z,64.59
2023-04-16T17:08:55.200Z,64.70
2023-04-16T17:11:29.697Z,64.51
2023-04-16T17:14:07.708Z,64.45
2023-04-16T17:16:40.932Z,64.57
2023-04-16T17:19:17.604Z,64.69
2023-04-16T17:21:53.917Z,64.36
2023-04-16T17:24:31.938Z,64.39
2023-04-16T17:27:11.014Z,64.40
2023-04-16T17:29:46.258Z,64.62
2023-04-16T17:32:18.811Z,64.53
2023-04-16T17:34:51.852Z,64.55
2023-04-16T17:37:25.051Z,64.64
2023-04-16T17:39:57.649Z,64.67
2023-04-16T17:42:29.736Z,64.70
2023-04-16T17:45:02.304Z,64.46
2023-04-16T17:47:35.414Z,64.65
2023-04-16T17:50:10.198Z,64.61
2023-04-16T17:52:43.114Z,64.65
2023-04-16T17:55:19.023Z,64.79
2023-04-16T17:57:51.405Z,64.71
2023-04-16T18:00:31.585Z,64.66
2023-04-16T18:03:04.372Z,64.69
2023-04-16T18:05:36.869Z,64.71
2023-04-16T18:08:11.460Z,64.75
2023-04-16T18:10:44.094Z,64.68
2023-04-16T18:13:16.706Z,64.77
2023-04-16T18:15:49.117Z,64.90
2023-04-16T18:18:21.862Z,64.81
2023-04-16T18:20:59.143Z,64.97
2023-04-16T18:23:32.438Z,64.90
2023-04-16T18:26:08.317Z,65.03
2023-04-16T18:28:42.452Z,64.95
2023-04-16T18:31:15.220Z,65.14
2023-04-16T18:33:56.521Z,65.12
2023-04-16T18:36:33.871Z,65.11
2023-04-16T18:39:08.393Z,65.06
2023-04-16T18:41:42.449Z,65.16
2023-04-16T18:44:15.119Z,65.26
2023-04-16T18:46:49.813Z,65.23
2023-04-16T18:49:22.160Z,65.18
2023-04-16T18:51:59.145Z,65.25
2023-04-16T18:54:32.528Z,65.24
2023-04-16T18:57:04.937Z,65.20
2023-04-16T18:59:37.937Z,65.26
2023-04-16T19:02:11.412Z,65.19
2023-04-16T19:04:45.702Z,65.33
2023-04-16T19:07:19.642Z,65.27
2023-04-16T19:09:52.891Z,65.53
2023-04-16T19:12:28.390Z,65.56
2023-04-16T19:15:03.041Z,65.63
2023-04-16T19:17:36.827Z,65.64
2023-04-16T19:20:12.787Z,65.67
2023-04-16T19:22:45.165Z,65.71
2023-04-16T19:25:17.277Z,65.70
2023-04-16T19:27:49.545Z,65.69
2023-04-16T19:30:25.077Z,65.76
2023-04-16T19:33:02.053Z,65.78
2023-04-16T19:35:37.144Z,65.83
2023-04-16T19:38:10.962Z,65.86
2023-04-16T19:40:47.120Z,65.94
2023-04-16T19:43:19.523Z,65.89
2023-04-16T19:45:53.782Z,65.99
2023-04-16T19:48:28.918Z,65.99
2023-04-16T19:51:05.818Z,66.02
2023-04-16T19:53:38.507Z,66.11
2023-04-16T19:56:14.078Z,65.96
2023-04-16T19:58:46.469Z,66.06
2023-04-16T20:01:18.729Z,66.16
2023-04-16T20:03:51.429Z,66.04
2023-04-16T20:06:24.357Z,66.07
2023-04-16T20:08:57.965Z,66.14
2023-04-16T20:11:32.780Z,66.11
2023-04-16T20:14:05.787Z,66.10
2023-04-16T20:16:41.282Z,66.23
2023-04-16T20:19:17.205Z,66.28
2023-04-16T20:21:49.380Z,66.28
2023-04-16T20:24:24.303Z,66.40
2023-04-16T20:26:56.616Z,66.27
2023-04-16T20:29:31.848Z,66.33
2023-04-16T20:32:03.911Z,66.37
2023-04-16T20:34:39.034Z,66.40
2023-04-16T20:37:11.250Z,66.41
2023-04-16T20:39:45.215Z,66.38
2023-04-16T20:42:18.067Z,66.48
2023-04-16T20:44:55.850Z,66.38
2023-04-16T20:47:28.910Z,66.42
2023-04-16T20:50:01.839Z,66.52
2023-04-16T20:52:34.493Z,66.59
2023-04-16T20:55:08.162Z,66.61
2023-04-16T20:57:43.314Z,66.71
2023-04-16T21:00:24.114Z,66.68
2023-04-16T21:02:56.361Z,66.75
2023-04-16T21:05:33.584Z,66.78
2023-04-16T21:08:06.147Z,66.84
2023-04-16T21:10:40.724Z,66.78
2023-04-16T21:13:13.061Z,66.72
2023-04-16T21:15:46.688Z,66.85
2023-04-16T21:18:19.478Z,66.88
2023-04-16T21:20:51.709Z,66.86
2023-04-16T21:23:23.894Z,66.91
2023-04-16T21:25:57.994Z,66.86
2023-04-16T21:28:33.318Z,66.84
2023-04-16T21:31:05.815Z,66.97
2023-04-16T21:33:39.094Z,66.99
2023-04-16T21:36:11.998Z,66.99
2023-04-16T21:38:46.379Z,67.07
2023-04-16T21:41:18.680Z,67.23
2023-04-16T21:43:50.738Z,67.17
2023-04-16T21:46:23.175Z,67.21
2023-04-16T21:48:55.280Z,67.23
2023-04-16T21:51:30.061Z,67.16
2023-04-16T21:54:02.082Z,67.28
2023-04-16T21:56:34.754Z,67.40
2023-04-16T21:59:06.881Z,67.38
2023-04-16T22:01:39.226Z,67.47
2023-04-16T22:04:12.661Z,67.48
2023-04-16T22:06:46.395Z,67.47
2023-04-16T22:09:18.472Z,67.42
2023-04-16T22:11:50.537Z,67.45
2023-04-16T22:14:22.595Z,67.55
2023-04-16T22:16:59.740Z,67.47
2023-04-16T22:19:35.016Z,67.52
2023-04-16T22:22:09.846Z,67.62
2023-04-16T22:24:42.003Z,67.61
2023-04-16T22:27:15.639Z,67.54
2023-04-16T22:29:48.032Z,67.57
2023-04-16T22:32:20.549Z,67.67
2023-04-16T22:34:54.916Z,67.56
2023-04-16T22:37:29.551Z,67.71
2023-04-16T22:40:01.649Z,67.65
2023-04-16T22:42:33.893Z,67.68
2023-04-16T22:45:08.972Z,67.72
2023-04-16T22:47:41.832Z,67.71
2023-04-16T22:50:14.207Z,67.66
2023-04-16T22:52:46.308Z,67.73
2023-04-16T22:55:18.250Z,67.71
2023-04-16T22:57:50.371Z,67.82
2023-04-16T23:00:22.743Z,67.97
2023-04-16T23:02:54.853Z,68.12
2023-04-16T23:05:29.708Z,68.04
2023-04-16T23:08:02.329Z,68.02
2023-04-16T23:10:34.320Z,68.11
2023-04-16T23:13:06.560Z,68.17
2023-04-16T23:15:38.778Z,68.07
2023-04-16T23:18:11.000Z,68.11
2023-04-16T23:20:44.810Z,68.15
2023-04-16T23:23:16.903Z,68.35
2023-04-16T23:25:49.035Z,68.43
2023-04-16T23:28:24.014Z,68.38
2023-04-16T23:30:56.120Z,68.39
2023-04-16T23:33:35.734Z,68.41
2023-04-16T23:36:12.836Z,68.45
2023-04-16T23:38:44.918Z,68.46
2023-04-16T23:41:16.972Z,68.68
2023-04-16T23:43:50.581Z,68.56
2023-04-16T23:46:22.702Z,68.66
2023-04-16T23:48:55.494Z,68.78
2023-04-16T23:51:30.732Z,68.76
2023-04-16T23:54:04.217Z,68.84
2023-04-16T23:56:36.426Z,68.68
2023-04-16T23:59:11.294Z,68.90
